Malcom, Iowa
Current Conditions -  °F | °C
As of 11:15 AM on Friday 28 Nov 2014 (Local Time) from KGGI Reporting Station
Clear Clear  
Wind Chill: 18°   Ceiling: Unl
Heat Index: 26°   Visibility: 10mi
Dew Point: 22°   Wind: 8mph
Humidity: 84%   Direction: 120°ESE
Pressure: 29.93"   Gusts: NA
Location:  41.71°N, 92.56°W
Report Text: KGGI 281715Z AUTO 12007KT 10SM CLR M03/M06 A2993 RMK AO2 T10331057
Loading
Personal Weather Stations






























Interactive Weather Map New forecast layout! Learn more

10-Day Weather Forecast

Advertisements
Track Severe Weather on mobile